createdAt,value
2023-03-24T06:49:21.878Z,3.67
2023-03-24T06:52:25.227Z,4.03
2023-03-24T06:55:28.011Z,4.38
2023-03-24T06:58:31.200Z,4.13
2023-03-24T07:01:35.306Z,4.20
2023-03-24T07:04:37.838Z,3.80
2023-03-24T07:08:16.792Z,4.30
2023-03-24T07:11:04.052Z,4.47
2023-03-24T07:14:08.724Z,4.78
2023-03-24T07:17:16.579Z,4.07
2023-03-24T07:20:21.447Z,3.78
2023-03-24T07:23:25.943Z,4.53
2023-03-24T07:26:29.180Z,3.90
2023-03-24T07:29:31.310Z,3.88
2023-03-24T07:32:39.220Z,3.63
2023-03-24T07:35:41.743Z,3.60
2023-03-24T07:38:43.800Z,3.30
2023-03-24T07:41:45.679Z,2.92
2023-03-24T07:44:47.847Z,2.33
2023-03-24T07:47:49.861Z,2.38
2023-03-24T07:50:54.103Z,2.25
2023-03-24T07:53:56.091Z,2.00
2023-03-24T07:56:58.283Z,1.92
2023-03-24T08:00:01.830Z,2.53
2023-03-24T08:03:04.498Z,2.40
2023-03-24T08:06:08.393Z,2.78
2023-03-24T08:09:11.547Z,2.33
2023-03-24T08:12:20.446Z,2.00
2023-03-24T08:15:23.238Z,2.20
2023-03-24T08:18:26.008Z,2.30
2023-03-24T08:21:29.992Z,2.88
2023-03-24T08:24:32.290Z,2.55
2023-03-24T08:27:34.401Z,1.95
2023-03-24T08:30:36.318Z,2.53
2023-03-24T08:33:38.514Z,2.40
2023-03-24T08:36:41.754Z,2.58
2023-03-24T08:39:44.986Z,2.10
2023-03-24T08:42:49.747Z,1.88
2023-03-24T08:45:52.139Z,2.35
2023-03-24T08:48:55.375Z,1.95
2023-03-24T08:51:58.882Z,1.40
2023-03-24T08:55:01.118Z,1.23
2023-03-24T08:58:03.096Z,0.90
2023-03-24T09:01:05.521Z,0.73
2023-03-24T09:04:07.754Z,1.10
2023-03-24T09:07:10.926Z,1.00
2023-03-24T09:10:15.067Z,0.90
2023-03-24T09:13:19.264Z,1.02
2023-03-24T09:16:23.525Z,1.10
2023-03-24T09:19:25.633Z,1.10
2023-03-24T09:22:27.578Z,1.10
2023-03-24T09:25:29.446Z,1.10
2023-03-24T09:28:32.220Z,1.13
2023-03-24T09:31:34.789Z,0.80
2023-03-24T09:34:38.391Z,0.70
2023-03-24T09:37:41.113Z,1.15
2023-03-24T09:40:43.761Z,1.60
2023-03-24T09:44:08.104Z,1.08
2023-03-24T09:47:25.249Z,1.10
2023-03-24T09:50:48.812Z,1.15
2023-03-24T09:54:04.093Z,1.20
2023-03-24T09:57:13.645Z,1.13
2023-03-24T10:00:25.981Z,0.90
2023-03-24T10:03:28.512Z,1.50
2023-03-24T10:06:36.772Z,0.95
2023-03-24T10:09:40.235Z,1.60
2023-03-24T10:12:48.787Z,1.70
2023-03-24T10:16:22.934Z,1.40
2023-03-24T10:19:34.691Z,1.10
2023-03-24T10:23:08.017Z,2.08
2023-03-24T10:26:24.096Z,2.55
2023-03-24T10:29:32.840Z,1.58
2023-03-24T10:32:38.574Z,1.05
2023-03-24T10:36:22.125Z,0.70
2023-03-24T10:42:38.893Z,0.80
2023-03-24T10:45:44.798Z,0.88
2023-03-24T10:48:50.193Z,0.73
2023-03-24T10:51:56.683Z,0.88
2023-03-24T10:55:04.335Z,0.80
2023-03-24T10:58:34.505Z,1.00
2023-03-24T11:01:37.983Z,0.70
2023-03-24T11:04:51.437Z,0.98
2023-03-24T11:07:54.647Z,1.10
2023-03-24T11:10:56.920Z,1.00
2023-03-24T11:14:02.434Z,0.75
2023-03-24T11:17:13.283Z,1.17
2023-03-24T11:20:44.193Z,0.90
2023-03-24T11:23:46.544Z,0.90
2023-03-24T11:27:03.290Z,1.10
2023-03-24T11:30:05.852Z,0.70
2023-03-24T11:33:07.729Z,1.10
2023-03-24T11:36:32.953Z,0.90
2023-03-24T11:39:35.397Z,1.00
2023-03-24T11:43:01.051Z,0.73
2023-03-24T11:46:17.097Z,0.88
2023-03-24T11:49:22.319Z,1.50
2023-03-24T11:55:37.114Z,0.80
2023-03-24T11:58:55.444Z,1.88
2023-03-24T12:02:03.267Z,1.55
2023-03-24T12:05:28.133Z,2.05
2023-03-24T12:08:51.684Z,0.63
2023-03-24T12:12:10.792Z,0.70
2023-03-24T12:15:27.926Z,1.25
2023-03-24T12:18:55.978Z,0.70
2023-03-24T12:22:39.434Z,0.70
2023-03-24T12:26:06.947Z,0.80
2023-03-24T12:29:23.894Z,1.00
2023-03-24T12:32:32.263Z,0.75
2023-03-24T12:35:39.893Z,0.80
2023-03-24T12:39:02.076Z,0.60
2023-03-24T12:42:07.190Z,1.75
2023-03-24T12:45:26.566Z,0.73
2023-03-24T12:49:03.286Z,1.00
2023-03-24T12:52:23.764Z,1.67
2023-03-24T12:55:50.543Z,1.48
2023-03-24T12:58:58.593Z,1.20
2023-03-24T13:02:24.085Z,1.00
2023-03-24T13:05:32.576Z,0.95
2023-03-24T13:08:38.266Z,1.23
2023-03-24T13:12:01.254Z,1.13
2023-03-24T13:15:09.603Z,1.42
2023-03-24T13:18:11.452Z,1.35
2023-03-24T13:21:23.428Z,1.40
2023-03-24T13:24:26.229Z,1.13
2023-03-24T13:27:36.219Z,1.77
2023-03-24T13:30:41.345Z,1.55
2023-03-24T13:33:44.956Z,2.30
2023-03-24T13:36:50.567Z,1.63
2023-03-24T13:39:58.322Z,1.42
2023-03-24T13:43:07.824Z,1.48
2023-03-24T13:46:13.671Z,1.48
2023-03-24T13:49:16.505Z,1.10
2023-03-24T13:52:31.044Z,1.33
2023-03-24T13:55:38.346Z,1.08
2023-03-24T13:59:03.230Z,1.30
2023-03-24T14:02:29.079Z,1.08
2023-03-24T14:05:32.535Z,1.33
2023-03-24T14:09:04.533Z,1.15
2023-03-24T14:12:17.631Z,1.88
2023-03-24T14:15:21.439Z,2.33
2023-03-24T14:18:23.179Z,3.85
2023-03-24T14:21:30.681Z,1.42
2023-03-24T14:24:33.066Z,1.65
2023-03-24T14:27:42.539Z,1.40
2023-03-24T14:31:13.321Z,1.10
2023-03-24T14:34:25.403Z,1.00
2023-03-24T14:37:29.083Z,1.23
2023-03-24T14:40:37.840Z,1.40
2023-03-24T14:43:39.520Z,1.00
2023-03-24T14:46:50.361Z,1.33
2023-03-24T14:49:57.139Z,1.40
2023-03-24T14:53:01.046Z,1.13
2023-03-24T14:56:03.903Z,1.08
2023-03-24T14:59:21.973Z,1.60
2023-03-24T15:02:52.233Z,1.30
2023-03-24T15:05:53.956Z,2.15
2023-03-24T15:09:07.388Z,1.02
2023-03-24T15:12:09.284Z,1.00
2023-03-24T15:15:19.513Z,1.42
2023-03-24T15:18:24.296Z,1.10
2023-03-24T15:21:29.755Z,1.85
2023-03-24T15:24:35.229Z,1.38
2023-03-24T15:27:39.528Z,1.40
2023-03-24T15:30:41.243Z,1.30
2023-03-24T15:33:43.872Z,0.93
2023-03-24T15:36:50.531Z,1.10
2023-03-24T15:40:01.876Z,0.80
2023-03-24T15:43:20.565Z,1.08
2023-03-24T15:46:30.732Z,0.98
2023-03-24T15:49:34.701Z,1.00
2023-03-24T15:52:38.324Z,1.23
2023-03-24T15:55:43.398Z,1.00
2023-03-24T15:58:48.086Z,1.40
2023-03-24T16:01:50.345Z,1.00
2023-03-24T16:05:07.754Z,1.00
2023-03-24T16:08:38.850Z,0.90
2023-03-24T16:11:41.862Z,1.00
2023-03-24T16:14:43.558Z,1.27
2023-03-24T16:17:45.773Z,0.98
2023-03-24T16:20:47.826Z,1.10
2023-03-24T16:23:51.936Z,1.48
2023-03-24T16:26:53.606Z,1.00
2023-03-24T16:29:55.841Z,1.30
2023-03-24T16:32:57.545Z,1.05
2023-03-24T16:36:00.567Z,0.95
2023-03-24T16:39:03.184Z,1.15
2023-03-24T16:42:04.977Z,1.25
2023-03-24T16:45:07.194Z,1.10
2023-03-24T16:48:11.574Z,1.15
2023-03-24T16:51:14.937Z,1.13
2023-03-24T16:54:16.658Z,0.93
2023-03-24T16:57:18.301Z,0.98
